Time;durP1;ratioP1;P1;durP2;ratioP2;P2;SDS_P1;SDS_P2;PMS_P1;PMS_P2;Temp;Humidity;BMP_temperature;BMP_pressure;BME280_temperature;BME280_humidity;BME280_pressure;Samples;Min_cycle;Max_cycle;Signal;HPM_P1;HPM_P2
2022/02/02 00:00:15;;;;;;;1.10;1.10;;;;;;;1.88;77.69;98100.86;103419;1284;140820;-75
2022/02/02 00:03:09;;;;;;;1.40;1.40;;;;;;;1.83;77.78;98089.45;103561;1282;96002;-79
2022/02/02 00:08:23;;;;;;;1.10;1.10;;;;;;;1.89;77.77;98097.15;103809;1282;110794;-74
2022/02/02 00:21:48;;;;;;;1.20;1.20;;;;;;;1.85;77.72;98082.23;103566;1284;110216;-74
2022/02/02 00:26:54;;;;;;;1.10;1.10;;;;;;;1.90;78.35;98081.56;103601;1283;109506;-74
2022/02/02 00:29:29;;;;;;;1.10;1.10;;;;;;;1.96;78.20;98076.84;103573;1284;96042;-77
2022/02/02 00:32:05;;;;;;;1.10;1.10;;;;;;;1.95;78.09;98072.13;103557;1282;138507;-76
2022/02/02 00:34:33;;;;;;;1.10;1.10;;;;;;;1.99;78.11;98065.03;103591;1284;110214;-77
2022/02/02 00:37:01;;;;;;;1.20;1.20;;;;;;;2.04;78.14;98065.23;103489;1282;141053;-77
2022/02/02 00:39:31;;;;;;;1.20;1.20;;;;;;;2.06;78.00;98060.96;103758;1283;109560;-78
2022/02/02 00:42:06;;;;;;;1.20;1.20;;;;;;;2.11;78.19;98062.91;103450;1282;140908;-75
2022/02/02 00:44:40;;;;;;;1.20;1.20;;;;;;;2.12;77.96;98058.15;103617;1284;95864;-76
2022/02/02 00:47:13;;;;;;;1.10;1.10;;;;;;;2.17;77.84;98058.01;103526;1282;110327;-76
2022/02/02 00:49:41;;;;;;;1.30;1.30;;;;;;;2.17;77.41;98055.90;103423;1282;140392;-76
2022/02/02 00:52:09;;;;;;;1.10;1.10;;;;;;;2.14;77.68;98053.90;103559;1282;109914;-77
2022/02/02 00:54:37;;;;;;;1.10;1.10;;;;;;;2.10;77.80;98046.65;103503;1282;141944;-79
2022/02/02 00:57:05;;;;;;;1.10;1.10;;;;;;;2.10;77.93;98049.63;103562;1283;95328;-77
2022/02/02 00:59:32;;;;;;;1.20;1.20;;;;;;;2.13;77.86;98041.32;103563;1282;110123;-76
2022/02/02 01:02:00;;;;;;;1.20;1.20;;;;;;;2.11;77.72;98039.11;103448;1284;139878;-76
2022/02/02 01:04:29;;;;;;;1.40;1.40;;;;;;;2.06;77.94;98044.16;103514;1282;109627;-74
2022/02/02 01:07:15;;;;;;;1.30;1.30;;;;;;;2.07;78.42;98040.45;103515;1282;139903;-75
2022/02/02 01:09:49;;;;;;;1.10;1.10;;;;;;;2.16;77.73;98038.44;103616;1284;95108;-75
2022/02/02 01:12:36;;;;;;;1.10;1.10;;;;;;;2.17;77.96;98035.58;103535;1282;141144;-74
2022/02/02 01:20:17;;;;;;;1.20;1.20;;;;;;;2.20;77.91;98020.29;103478;1282;140218;-81
2022/02/02 01:28:18;;;;;;;1.20;1.20;;;;;;;2.29;78.08;98014.08;103538;1282;99889;-76
2022/02/02 01:30:46;;;;;;;1.20;1.20;;;;;;;2.40;77.94;98012.33;103492;1282;143778;-75
2022/02/02 01:33:13;;;;;;;1.20;1.20;;;;;;;2.44;77.59;98011.30;103604;1282;95785;-76
2022/02/02 01:35:43;;;;;;;1.20;1.20;;;;;;;2.47;77.70;98006.66;103455;1282;141276;-78
2022/02/02 01:38:11;;;;;;;1.20;1.20;;;;;;;2.51;77.78;98006.53;103569;1284;110257;-73
2022/02/02 01:40:44;;;;;;;1.20;1.20;;;;;;;2.56;77.72;98006.36;103559;1284;100294;-78
2022/02/02 01:43:18;;;;;;;1.20;1.20;;;;;;;2.61;77.55;98005.34;103445;1284;140487;-75
2022/02/02 01:45:51;;;;;;;1.10;1.10;;;;;;;2.60;77.17;98009.57;103750;1282;95149;-70
2022/02/02 01:56:13;;;;;;;1.00;1.00;;;;;;;2.62;77.38;98005.83;103438;1282;139875;-76
2022/02/02 01:59:00;;;;;;;1.10;1.10;;;;;;;2.61;77.45;98008.14;103504;1284;95655;-76
2022/02/02 02:01:29;;;;;;;1.10;1.10;;;;;;;2.61;77.28;98004.30;103532;1283;139428;-76
2022/02/02 02:03:58;;;;;;;1.10;1.10;;;;;;;2.63;77.09;98002.30;103591;1284;109477;-73
2022/02/02 02:06:26;;;;;;;1.10;1.10;;;;;;;2.64;76.94;97997.36;103594;1282;140988;-78
2022/02/02 02:08:54;;;;;;;1.20;1.20;;;;;;;2.63;77.54;97995.29;103624;1282;109366;-76
2022/02/02 02:11:23;;;;;;;1.20;1.20;;;;;;;2.64;77.32;97996.29;103516;1282;95807;-75
2022/02/02 02:16:37;;;;;;;1.40;1.40;;;;;;;2.60;77.08;97994.84;103611;1282;109729;-75
2022/02/02 02:19:05;;;;;;;1.10;1.10;;;;;;;2.60;77.24;97999.77;103429;1282;139620;-75
2022/02/02 02:21:33;;;;;;;1.20;1.20;;;;;;;2.58;77.35;97997.55;103558;1282;108362;-76
2022/02/02 02:24:01;;;;;;;1.20;1.20;;;;;;;2.63;77.63;97994.94;103423;1284;140635;-76
2022/02/02 02:26:30;;;;;;;1.10;1.10;;;;;;;2.70;77.30;97995.95;103600;1282;95198;-77
2022/02/02 02:56:01;;;;;;;1.10;1.10;;;;;;;3.01;76.59;97977.55;103442;1284;140806;-76
2022/02/02 03:56:31;;;;;;;0.90;0.90;;;;;;;3.68;77.27;97986.02;103459;1283;140253;-79
2022/02/02 04:07:00;;;;;;;1.00;1.00;;;;;;;3.77;77.46;97987.41;103479;1284;141157;-76
2022/02/02 04:09:32;;;;;;;0.90;0.90;;;;;;;3.79;77.31;97984.35;103549;1284;108258;-78
2022/02/02 04:12:13;;;;;;;1.00;1.00;;;;;;;3.81;77.37;97992.01;103567;1284;95695;-76
2022/02/02 04:56:19;;;;;;;1.00;1.00;;;;;;;3.92;77.49;98008.80;103446;1284;143934;-76
2022/02/02 05:06:43;;;;;;;0.90;0.90;;;;;;;3.93;77.34;98011.05;103592;1284;95373;-80
2022/02/02 05:17:28;;;;;;;0.90;0.90;;;;;;;4.11;77.08;98022.81;103382;1284;109559;-74
2022/02/02 05:52:30;;;;;;;0.90;0.90;;;;;;;4.13;76.66;98032.05;103635;1284;110232;-75
2022/02/02 05:54:57;;;;;;;1.00;1.00;;;;;;;4.08;76.91;98033.85;103620;1284;100308;-75
2022/02/02 05:57:31;;;;;;;1.00;1.00;;;;;;;4.08;77.25;98030.70;103452;1284;140124;-76
2022/02/02 05:59:59;;;;;;;0.90;0.90;;;;;;;4.12;77.13;98037.70;103896;1284;95933;-77
2022/02/02 06:02:38;;;;;;;0.90;0.90;;;;;;;4.15;76.94;98040.08;103933;1284;138415;-76
2022/02/02 06:05:08;;;;;;;0.90;0.90;;;;;;;4.15;76.97;98047.97;103958;1284;110518;-77
2022/02/02 06:07:38;;;;;;;1.00;1.00;;;;;;;4.17;76.83;98047.37;103561;1284;140745;-76
2022/02/02 06:10:09;;;;;;;0.90;0.90;;;;;;;4.14;76.94;98043.77;103561;1284;109985;-76
2022/02/02 06:12:37;;;;;;;0.90;0.90;;;;;;;4.12;77.13;98046.66;103669;1284;95252;-79
2022/02/02 06:15:10;;;;;;;0.90;0.90;;;;;;;4.13;77.06;98048.02;103497;1284;139687;-76
2022/02/02 06:17:46;;;;;;;0.90;0.90;;;;;;;4.17;76.99;98056.85;103770;1284;110323;-75
2022/02/02 06:20:14;;;;;;;0.90;0.90;;;;;;;4.22;77.19;98057.71;103549;1284;139041;-75
2022/02/02 06:22:45;;;;;;;0.90;0.90;;;;;;;4.20;76.65;98065.16;103575;1284;110955;-75
2022/02/02 06:25:24;;;;;;;0.90;0.90;;;;;;;4.16;76.99;98066.87;103708;1283;95373;-75
2022/02/02 06:28:06;;;;;;;1.00;1.00;;;;;;;4.20;76.99;98073.77;103461;1284;138201;-79
2022/02/02 06:30:34;;;;;;;0.90;0.90;;;;;;;4.18;76.80;98079.12;103656;1284;108591;-79
2022/02/02 06:33:08;;;;;;;1.00;1.00;;;;;;;4.16;77.09;98086.57;103600;1282;139280;-77
2022/02/02 06:35:36;;;;;;;1.10;1.10;;;;;;;4.15;77.08;98093.79;103576;1284;106725;-82
2022/02/02 06:38:05;;;;;;;1.00;1.00;;;;;;;4.18;76.80;98088.77;103505;1282;138469;-75
2022/02/02 06:40:37;;;;;;;1.00;1.00;;;;;;;4.20;76.73;98093.27;103538;1284;95176;-76
2022/02/02 06:43:04;;;;;;;0.90;0.90;;;;;;;4.22;76.79;98098.45;103718;1284;110102;-76
2022/02/02 06:45:34;;;;;;;1.10;1.10;;;;;;;4.23;77.05;98103.69;103581;1282;138867;-78
2022/02/02 06:48:03;;;;;;;0.90;0.90;;;;;;;4.27;76.75;98104.63;103735;1284;109127;-82
2022/02/02 06:50:35;;;;;;;0.90;0.90;;;;;;;4.30;76.79;98102.36;103510;1284;139699;-76
2022/02/02 06:56:37;;;;;;;0.90;0.90;;;;;;;4.32;76.78;98103.52;103482;1284;139504;-74
2022/02/02 07:13:01;;;;;;;0.90;0.90;;;;;;;4.33;75.82;98120.20;103588;1284;98702;-74
2022/02/02 07:24:03;;;;;;;0.90;0.90;;;;;;;4.48;75.73;98132.80;103592;1283;110242;-73
2022/02/02 07:27:01;;;;;;;1.00;1.00;;;;;;;4.49;75.68;98133.63;103490;1284;138959;-74
2022/02/02 07:29:57;;;;;;;0.90;0.90;;;;;;;4.47;75.47;98136.86;103574;1282;108370;-76
2022/02/02 07:32:25;;;;;;;1.00;1.00;;;;;;;4.44;75.34;98141.74;103434;1284;138425;-77
2022/02/02 07:35:07;;;;;;;0.90;0.90;;;;;;;4.48;75.50;98141.05;103734;1284;95264;-74
2022/02/02 07:37:43;;;;;;;1.00;1.00;;;;;;;4.53;75.30;98146.48;103557;1282;110474;-78
2022/02/02 07:40:11;;;;;;;1.00;1.00;;;;;;;4.53;75.22;98145.60;103586;1284;138851;-74
2022/02/02 07:42:46;;;;;;;1.00;1.00;;;;;;;4.44;75.09;98144.70;103653;1284;109244;-79
2022/02/02 07:45:16;;;;;;;1.00;1.00;;;;;;;4.43;75.33;98146.52;103465;1284;138632;-79
2022/02/02 07:47:47;;;;;;;0.90;0.90;;;;;;;4.37;75.10;98148.68;103680;1284;95217;-76
2022/02/02 07:50:15;;;;;;;0.90;0.90;;;;;;;4.33;75.08;98153.39;103558;1282;141440;-77
2022/02/02 07:52:45;;;;;;;0.90;0.90;;;;;;;4.38;75.24;98152.14;103775;1284;99838;-76
2022/02/02 07:55:14;;;;;;;0.90;0.90;;;;;;;4.44;75.50;98154.21;103685;1282;109657;-74
2022/02/02 07:57:45;;;;;;;0.90;0.90;;;;;;;4.43;75.06;98152.64;103636;1284;138438;-77
2022/02/02 08:00:20;;;;;;;1.00;1.00;;;;;;;4.42;75.01;98159.22;103699;1284;95665;-75
2022/02/02 08:03:13;;;;;;;0.90;0.90;;;;;;;4.41;75.00;98164.67;103811;1284;139553;-75
2022/02/02 08:05:43;;;;;;;0.90;0.90;;;;;;;4.39;75.38;98169.86;103731;1282;99997;-79
2022/02/02 08:10:48;;;;;;;0.90;0.90;;;;;;;4.39;74.96;98172.11;103749;1282;95600;-75
2022/02/02 08:13:23;;;;;;;0.90;0.90;;;;;;;4.44;74.82;98177.58;103751;1284;95711;-78
2022/02/02 08:16:01;;;;;;;0.90;0.90;;;;;;;4.44;75.04;98177.38;103638;1282;140218;-75
2022/02/02 08:18:29;;;;;;;0.90;0.90;;;;;;;4.48;75.08;98179.73;103805;1284;99948;-76
2022/02/02 08:20:57;;;;;;;0.90;0.90;;;;;;;4.47;74.86;98175.55;103765;1282;139644;-77
2022/02/02 08:23:25;;;;;;;0.90;0.90;;;;;;;4.46;75.01;98181.55;103697;1283;95190;-78
2022/02/02 08:25:53;;;;;;;1.00;1.00;;;;;;;4.44;74.79;98181.25;103570;1284;140344;-76
2022/02/02 08:28:22;;;;;;;0.80;0.80;;;;;;;4.49;75.09;98182.98;103777;1282;110442;-74
2022/02/02 08:30:50;;;;;;;0.90;0.90;;;;;;;4.53;74.77;98184.98;103722;1284;99695;-75
2022/02/02 08:33:24;;;;;;;0.90;0.90;;;;;;;4.50;74.50;98188.40;103527;1283;139605;-73
2022/02/02 08:35:54;;;;;;;0.90;0.90;;;;;;;4.45;74.32;98186.30;103747;1283;95658;-75
2022/02/02 08:43:47;;;;;;;0.90;0.90;;;;;;;4.54;74.50;98202.30;103689;1282;97402;-76
2022/02/02 08:46:29;;;;;;;0.90;0.90;;;;;;;4.52;74.30;98206.44;103583;1282;139780;-76
2022/02/02 08:48:58;;;;;;;0.90;0.90;;;;;;;4.52;74.19;98211.73;103607;1284;95251;-74
2022/02/02 08:51:31;;;;;;;0.90;0.90;;;;;;;4.54;74.52;98219.21;103630;1282;139684;-80
2022/02/02 08:59:09;;;;;;;0.90;0.90;;;;;;;4.59;74.24;98234.29;104095;1284;108369;-74
2022/02/02 09:01:38;;;;;;;0.90;0.90;;;;;;;4.55;74.07;98238.33;103664;1284;95361;-77
2022/02/02 09:06:51;;;;;;;0.90;0.90;;;;;;;4.53;73.90;98249.13;103724;1282;109718;-76
2022/02/02 09:09:37;;;;;;;0.90;0.90;;;;;;;4.51;73.91;98248.80;103605;1284;139659;-76
2022/02/02 09:34:06;;;;;;;0.90;0.90;;;;;;;4.32;73.26;98290.79;103576;1284;140264;-72
2022/02/02 09:36:37;;;;;;;0.90;0.90;;;;;;;4.25;73.48;98290.15;103705;1282;100004;-74
2022/02/02 09:39:09;;;;;;;0.90;0.90;;;;;;;4.28;73.74;98291.80;103307;1284;196593;-73
2022/02/02 09:41:45;;;;;;;0.90;0.90;;;;;;;4.34;73.87;98290.04;103723;1284;95340;-76
2022/02/02 09:44:18;;;;;;;1.10;1.10;;;;;;;4.35;73.70;98296.48;103683;1284;140381;-76
2022/02/02 09:49:24;;;;;;;1.00;1.00;;;;;;;4.28;72.89;98297.95;103661;1282;99953;-75
2022/02/02 09:51:59;;;;;;;0.90;0.90;;;;;;;4.22;73.23;98301.34;103602;1284;140359;-73
2022/02/02 10:00:59;;;;;;;1.00;1.00;;;;;;;4.21;73.45;98312.80;103600;1282;108796;-72
2022/02/02 10:06:17;;;;;;;0.90;0.90;;;;;;;4.16;73.35;98314.70;104436;1282;109339;-80
2022/02/02 10:11:49;;;;;;;0.90;0.90;;;;;;;4.02;73.83;98322.71;103699;1284;95683;-77
2022/02/02 10:14:25;;;;;;;0.90;0.90;;;;;;;4.01;73.29;98333.80;103542;1282;140513;-77
2022/02/02 10:16:54;;;;;;;0.90;0.90;;;;;;;4.00;73.45;98327.36;103674;1282;100279;-76
2022/02/02 10:19:32;;;;;;;0.90;0.90;;;;;;;4.00;73.66;98330.51;103715;1284;107826;-76
2022/02/02 10:22:00;;;;;;;1.00;1.00;;;;;;;4.00;73.68;98331.90;103573;1282;139445;-77
2022/02/02 10:24:45;;;;;;;1.00;1.00;;;;;;;4.04;73.91;98336.52;103701;1282;95651;-76
2022/02/02 10:27:27;;;;;;;1.40;1.40;;;;;;;4.08;73.96;98340.27;103719;1282;140564;-74
2022/02/02 10:30:14;;;;;;;1.00;1.00;;;;;;;4.08;73.49;98344.64;103798;1282;99199;-74
2022/02/02 10:32:47;;;;;;;0.90;0.90;;;;;;;4.09;73.38;98354.98;103607;1282;140221;-75
2022/02/02 10:35:37;;;;;;;1.00;1.00;;;;;;;4.10;73.35;98363.35;103756;1282;95274;-78
2022/02/02 10:38:26;;;;;;;1.00;1.00;;;;;;;4.12;73.14;98362.41;103914;1282;139800;-75
2022/02/02 10:41:15;;;;;;;0.90;0.90;;;;;;;4.14;73.63;98364.80;103696;1282;110083;-75
2022/02/02 10:43:52;;;;;;;0.90;0.90;;;;;;;4.17;73.36;98370.17;103729;1284;99704;-75
2022/02/02 10:47:16;;;;;;;0.90;0.90;;;;;;;4.16;73.16;98369.49;103624;1284;138961;-77
2022/02/02 10:49:24;;;;;;;0.90;0.90;;;;;;;4.17;73.40;98375.09;103592;1283;96445;-76
2022/02/02 10:52:08;;;;;;;0.90;0.90;;;;;;;4.19;73.52;98382.56;103688;1282;139745;-76
2022/02/02 10:55:13;;;;;;;0.90;0.90;;;;;;;4.18;73.34;98385.41;103818;1282;110150;-75
2022/02/02 11:08:00;;;;;;;0.90;0.90;;;;;;;4.02;72.01;98415.61;103646;1282;112210;-74
2022/02/02 11:10:30;;;;;;;0.90;0.90;;;;;;;4.04;72.78;98419.95;103662;1282;140757;-74
2022/02/02 11:12:59;;;;;;;0.90;0.90;;;;;;;4.10;72.70;98426.95;103708;1282;109307;-76
2022/02/02 11:15:35;;;;;;;0.90;0.90;;;;;;;4.14;72.45;98431.71;103559;1282;140366;-75
2022/02/02 11:18:09;;;;;;;1.00;1.00;;;;;;;4.14;72.67;98438.56;103701;1282;96061;-73
2022/02/02 11:20:41;;;;;;;1.00;1.00;;;;;;;4.13;71.99;98445.81;103544;1284;140594;-74
2022/02/02 11:23:09;;;;;;;0.90;0.90;;;;;;;4.16;72.31;98452.23;103801;1282;98889;-76
2022/02/02 11:25:47;;;;;;;0.90;0.90;;;;;;;4.21;72.55;98461.37;103834;1282;109423;-77
2022/02/02 11:28:23;;;;;;;1.00;1.00;;;;;;;4.20;72.06;98467.20;103557;1284;139096;-74
2022/02/02 11:30:50;;;;;;;0.90;0.90;;;;;;;4.16;71.78;98480.30;103752;1284;95835;-73
2022/02/02 11:33:21;;;;;;;0.90;0.90;;;;;;;4.15;71.81;98487.39;103461;1282;141467;-75
2022/02/02 11:35:51;;;;;;;0.90;0.90;;;;;;;4.14;72.60;98492.48;103776;1282;100619;-72
2022/02/02 11:38:39;;;;;;;1.00;1.00;;;;;;;4.13;72.29;98497.29;103540;1284;139101;-79
2022/02/02 11:49:58;;;;;;;0.90;0.90;;;;;;;3.96;72.06;98528.34;103591;1282;100043;-73
2022/02/02 11:52:37;;;;;;;1.00;1.00;;;;;;;3.94;72.89;98535.45;103492;1282;140199;-82
2022/02/02 11:55:10;;;;;;;0.90;0.90;;;;;;;3.98;72.69;98544.25;103650;1282;95691;-74
2022/02/02 11:58:16;;;;;;;1.10;1.10;;;;;;;3.95;72.50;98550.30;103501;1282;138077;-75
2022/02/02 12:00:56;;;;;;;1.00;1.00;;;;;;;3.90;72.41;98559.95;103603;1284;111371;-72
2022/02/02 12:09:10;;;;;;;1.00;1.00;;;;;;;3.61;72.64;98574.98;103518;1282;138398;-74
2022/02/02 12:47:25;;;;;;;0.90;0.90;;;;;;;3.48;73.25;98660.27;103618;1282;109892;-79
2022/02/02 13:03:13;;;;;;;1.10;1.10;;;;;;;3.55;73.76;98697.10;103694;1284;139657;-82
2022/02/02 13:05:42;;;;;;;1.00;1.00;;;;;;;3.56;73.82;98698.98;103649;1284;95350;-75
2022/02/02 13:08:10;;;;;;;1.10;1.10;;;;;;;3.56;73.85;98707.06;103640;1282;139394;-72
2022/02/02 13:10:38;;;;;;;0.90;0.90;;;;;;;3.59;73.97;98714.55;103698;1284;100422;-75
2022/02/02 13:13:12;;;;;;;1.00;1.00;;;;;;;3.60;73.56;98719.44;103701;1282;109577;-74
2022/02/02 13:15:49;;;;;;;1.10;1.10;;;;;;;3.50;73.73;98730.53;103535;1284;140471;-76
2022/02/02 13:21:07;;;;;;;1.00;1.00;;;;;;;3.49;73.89;98742.33;103731;1282;140345;-75
2022/02/02 13:23:52;;;;;;;1.00;1.00;;;;;;;3.47;74.23;98751.67;103730;1283;99910;-79
2022/02/02 13:32:02;;;;;;;1.10;1.10;;;;;;;3.47;74.45;98770.60;103683;1284;95699;-75
2022/02/02 13:51:32;;;;;;;1.00;1.00;;;;;;;3.50;74.30;98817.73;103462;1284;138666;-74
2022/02/02 13:54:33;;;;;;;1.10;1.10;;;;;;;3.49;73.97;98820.58;103619;1283;109414;-73
2022/02/02 13:57:31;;;;;;;1.10;1.10;;;;;;;3.45;74.37;98823.46;103617;1284;139608;-75
2022/02/02 14:00:24;;;;;;;1.00;1.00;;;;;;;3.44;74.29;98829.83;103661;1284;95592;-78
2022/02/02 14:33:47;;;;;;;1.10;1.10;;;;;;;3.72;74.30;98932.03;103566;1284;139740;-77
2022/02/02 14:36:19;;;;;;;1.10;1.10;;;;;;;3.69;74.20;98933.67;103743;1284;107860;-80
2022/02/02 14:41:45;;;;;;;1.10;1.10;;;;;;;3.65;73.91;98960.09;103688;1284;95890;-79
2022/02/02 14:44:30;;;;;;;1.00;1.00;;;;;;;3.73;74.57;98967.65;103679;1284;110172;-74
2022/02/02 14:47:25;;;;;;;1.00;1.00;;;;;;;3.81;74.40;98976.26;103686;1284;100000;-75
2022/02/02 14:50:02;;;;;;;1.20;1.20;;;;;;;3.81;73.86;98982.58;103868;1284;109413;-76
2022/02/02 15:27:57;;;;;;;0.90;0.90;;;;;;;3.93;73.54;99087.15;103589;1284;140528;-76
2022/02/02 15:30:31;;;;;;;1.10;1.10;;;;;;;3.91;73.53;99092.64;103706;1284;109552;-74
2022/02/02 15:33:03;;;;;;;1.00;1.00;;;;;;;3.92;73.52;99097.00;103600;1284;139535;-72
2022/02/02 15:35:33;;;;;;;1.00;1.00;;;;;;;3.88;73.67;99102.88;103712;1284;94441;-75
2022/02/02 15:38:05;;;;;;;1.10;1.10;;;;;;;3.91;73.75;99109.66;103837;1284;110165;-75
2022/02/02 15:40:38;;;;;;;0.90;0.90;;;;;;;3.98;73.72;99123.04;103686;1284;139791;-77
2022/02/02 16:02:17;;;;;;;0.90;0.90;;;;;;;3.80;73.58;99159.91;103909;1284;95769;-76
2022/02/02 16:04:46;;;;;;;0.90;0.90;;;;;;;3.75;73.38;99170.18;103413;1284;139133;-76
2022/02/02 16:07:23;;;;;;;1.10;1.10;;;;;;;3.70;73.70;99169.39;103614;1284;100003;-82
2022/02/02 16:09:54;;;;;;;1.00;1.00;;;;;;;3.71;73.63;99176.75;103532;1284;140873;-77
2022/02/02 16:15:29;;;;;;;0.90;0.90;;;;;;;3.67;73.33;99189.11;103436;1284;139552;-75
2022/02/02 16:31:55;;;;;;;0.90;0.90;;;;;;;3.76;73.41;99235.65;103706;1284;109875;-77
2022/02/02 16:34:48;;;;;;;0.90;0.90;;;;;;;3.86;73.47;99244.42;103769;1284;99853;-74
2022/02/02 16:37:14;;;;;;;0.90;0.90;;;;;;;3.88;73.37;99252.30;103763;1284;109682;-75
2022/02/02 16:39:54;;;;;;;0.90;0.90;;;;;;;3.91;73.06;99253.66;103756;1284;95263;-77
2022/02/02 16:45:09;;;;;;;0.80;0.80;;;;;;;3.91;72.77;99263.83;103551;1284;140002;-74
2022/02/02 16:47:37;;;;;;;0.90;0.90;;;;;;;3.85;72.61;99270.26;103720;1284;100603;-79
2022/02/02 16:50:15;;;;;;;1.00;1.00;;;;;;;3.83;72.97;99269.92;103647;1284;110326;-73
2022/02/02 16:52:45;;;;;;;1.10;1.10;;;;;;;3.84;72.63;99270.80;103737;1284;143916;-82
2022/02/02 16:55:26;;;;;;;0.90;0.90;;;;;;;3.80;72.72;99275.08;104055;1284;95137;-75
2022/02/02 16:58:06;;;;;;;1.10;1.10;;;;;;;3.74;72.50;99279.92;104108;1284;139840;-76
2022/02/02 17:28:02;;;;;;;1.00;1.00;;;;;;;3.49;71.85;99338.94;103783;1284;110680;-81
2022/02/02 17:32:31;;;;;;;1.00;1.00;;;;;;;3.46;71.31;99361.25;104123;1284;109756;-80
2022/02/02 17:38:05;;;;;;;1.00;1.00;;;;;;;3.39;71.46;99370.66;103508;1284;95267;-75
2022/02/02 18:19:01;;;;;;;1.10;1.10;;;;;;;3.37;72.14;99438.76;103599;1284;95242;-78
2022/02/02 18:21:31;;;;;;;1.00;1.00;;;;;;;3.45;72.04;99448.48;103517;1284;139925;-73
2022/02/02 18:24:53;;;;;;;1.00;1.00;;;;;;;3.43;71.82;99451.49;103611;1284;97579;-73
2022/02/02 18:26:57;;;;;;;1.00;1.00;;;;;;;3.33;71.56;99453.72;103532;1284;107994;-72
2022/02/02 18:35:01;;;;;;;1.00;1.00;;;;;;;3.29;72.07;99477.09;103510;1284;139499;-78
2022/02/02 18:54:01;;;;;;;1.00;1.00;;;;;;;3.26;71.76;99516.44;103487;1284;140503;-77
2022/02/02 19:06:53;;;;;;;1.10;1.10;;;;;;;3.11;71.99;99539.56;103637;1284;109338;-75
2022/02/02 20:07:07;;;;;;;1.20;1.20;;;;;;;2.53;69.45;99698.81;103420;1284;95242;-72
2022/02/02 20:12:31;;;;;;;1.10;1.10;;;;;;;2.58;69.84;99705.96;103645;1282;98287;-81
2022/02/02 20:15:00;;;;;;;1.20;1.20;;;;;;;2.54;69.37;99715.11;103680;1282;107877;-76
2022/02/02 20:17:29;;;;;;;1.00;1.00;;;;;;;2.48;69.06;99716.52;103517;1282;140613;-76
2022/02/02 20:20:00;;;;;;;1.10;1.10;;;;;;;2.45;69.34;99723.91;103647;1282;95279;-74
2022/02/02 20:22:30;;;;;;;1.10;1.10;;;;;;;2.40;69.60;99729.36;103544;1282;139700;-73
2022/02/02 20:25:01;;;;;;;1.30;1.30;;;;;;;2.32;69.29;99741.99;103638;1282;100567;-76
2022/02/02 20:27:31;;;;;;;1.20;1.20;;;;;;;2.26;69.32;99748.49;103494;1284;138548;-77
2022/02/02 20:30:01;;;;;;;1.20;1.20;;;;;;;2.25;69.52;99751.48;103876;1282;95766;-75
2022/02/02 20:32:28;;;;;;;1.20;1.20;;;;;;;2.17;69.37;99762.17;103742;1282;95885;-74
2022/02/02 20:34:56;;;;;;;1.20;1.20;;;;;;;2.15;69.71;99769.71;103759;1282;139897;-74
2022/02/02 20:37:24;;;;;;;1.20;1.20;;;;;;;2.14;69.50;99775.67;103598;1284;100212;-75
2022/02/02 20:39:55;;;;;;;1.20;1.20;;;;;;;2.18;69.40;99784.05;103542;1282;138163;-75
2022/02/02 20:42:34;;;;;;;1.30;1.30;;;;;;;2.19;69.45;99789.14;103591;1284;95296;-76
2022/02/02 21:02:56;;;;;;;1.20;1.20;;;;;;;2.22;69.73;99829.95;103672;1282;109184;-76
2022/02/02 21:04:53;;;;;;;1.30;1.30;;;;;;;2.23;69.85;99834.50;103503;1284;138155;-78
2022/02/02 21:09:59;;;;;;;1.10;1.10;;;;;;;2.35;70.01;99854.10;103506;1284;138937;-73
2022/02/02 21:15:19;;;;;;;1.30;1.30;;;;;;;2.39;69.45;99874.77;103605;1284;108362;-75
2022/02/02 21:17:47;;;;;;;1.20;1.20;;;;;;;2.31;68.89;99878.63;103588;1284;139085;-75
2022/02/02 21:23:56;;;;;;;1.20;1.20;;;;;;;2.13;68.43;99894.40;103486;1284;140158;-82
2022/02/02 21:26:10;;;;;;;1.30;1.30;;;;;;;2.03;68.56;99900.88;103559;1284;96825;-76
2022/02/02 21:28:37;;;;;;;1.50;1.50;;;;;;;1.93;68.71;99899.48;103584;1284;138823;-75
2022/02/02 21:31:05;;;;;;;1.20;1.20;;;;;;;1.89;68.17;99899.12;103809;1284;99956;-78
2022/02/02 21:33:36;;;;;;;1.20;1.20;;;;;;;1.83;68.19;99903.33;103468;1284;138425;-74
2022/02/02 21:36:08;;;;;;;1.30;1.30;;;;;;;1.75;68.29;99903.48;103659;1284;95267;-72
2022/02/02 21:38:52;;;;;;;1.40;1.40;;;;;;;1.68;68.28;99904.52;103760;1284;95662;-74
2022/02/02 21:41:24;;;;;;;1.30;1.30;;;;;;;1.64;68.57;99912.55;103287;1284;336391;-76
2022/02/02 21:43:52;;;;;;;1.60;1.60;;;;;;;1.64;68.38;99913.09;103625;1284;99917;-77
2022/02/02 21:46:22;;;;;;;1.20;1.20;;;;;;;1.64;68.39;99915.88;103497;1284;137919;-73
2022/02/02 21:48:50;;;;;;;1.40;1.40;;;;;;;1.59;68.01;99923.75;103549;1284;95472;-76
2022/02/02 21:51:26;;;;;;;1.50;1.50;;;;;;;1.55;68.07;99929.86;103561;1284;95592;-77
2022/02/02 21:53:54;;;;;;;1.30;1.30;;;;;;;1.56;68.15;99942.81;103506;1284;138854;-74
2022/02/02 21:56:22;;;;;;;1.30;1.30;;;;;;;1.57;68.25;99948.77;103598;1284;99326;-73
2022/02/02 21:58:50;;;;;;;1.60;1.60;;;;;;;1.56;68.14;99951.73;103533;1284;139716;-79
2022/02/02 22:01:19;;;;;;;1.40;1.40;;;;;;;1.55;68.20;99958.55;103502;1284;95356;-82
2022/02/02 22:03:47;;;;;;;1.40;1.40;;;;;;;1.57;68.09;99962.41;103458;1284;140107;-75
2022/02/02 22:06:15;;;;;;;1.50;1.50;;;;;;;1.55;67.58;99968.19;103558;1284;108794;-73
2022/02/02 22:08:43;;;;;;;1.40;1.40;;;;;;;1.54;67.59;99972.89;103545;1284;100416;-77
2022/02/02 22:11:11;;;;;;;1.40;1.40;;;;;;;1.48;67.54;99981.61;103487;1284;138725;-80
2022/02/02 22:13:42;;;;;;;1.40;1.40;;;;;;;1.49;67.90;99989.50;103607;1284;96975;-80
2022/02/02 22:16:14;;;;;;;1.50;1.50;;;;;;;1.51;67.69;99996.69;103488;1284;139060;-79
2022/02/02 22:18:44;;;;;;;1.40;1.40;;;;;;;1.52;67.67;100007.18;103471;1284;110254;-75
2022/02/02 22:21:12;;;;;;;1.50;1.50;;;;;;;1.49;67.70;100012.41;103652;1284;97316;-73
2022/02/02 22:23:42;;;;;;;1.60;1.60;;;;;;;1.48;67.71;100024.48;103421;1284;138632;-76
2022/02/02 22:26:12;;;;;;;1.40;1.40;;;;;;;1.48;67.92;100027.81;103970;1284;95296;-76
2022/02/02 22:28:39;;;;;;;1.30;1.30;;;;;;;1.54;68.20;100034.30;103548;1284;139994;-74
2022/02/02 22:31:07;;;;;;;1.50;1.50;;;;;;;1.56;67.47;100039.21;103633;1284;110710;-78
2022/02/02 22:33:35;;;;;;;1.30;1.30;;;;;;;1.51;67.38;100045.84;103614;1284;138538;-74
2022/02/02 22:36:03;;;;;;;1.30;1.30;;;;;;;1.49;67.19;100052.84;103514;1285;107376;-79
2022/02/02 22:38:31;;;;;;;1.50;1.50;;;;;;;1.52;67.89;100056.86;103628;1284;95372;-77
2022/02/02 22:40:59;;;;;;;1.40;1.40;;;;;;;1.56;67.75;100064.06;103555;1284;137711;-74
2022/02/02 22:43:29;;;;;;;1.40;1.40;;;;;;;1.53;67.30;100067.73;103618;1284;110794;-76
2022/02/02 22:45:58;;;;;;;1.50;1.50;;;;;;;1.49;67.59;100070.51;103608;1284;139968;-71
2022/02/02 22:48:30;;;;;;;1.50;1.50;;;;;;;1.49;67.31;100074.17;103724;1284;110035;-79
2022/02/02 22:50:58;;;;;;;1.50;1.50;;;;;;;1.46;67.24;100083.26;103549;1284;95811;-77
2022/02/02 22:53:26;;;;;;;1.40;1.40;;;;;;;1.45;67.57;100087.98;103514;1284;138355;-76
2022/02/02 22:55:54;;;;;;;1.50;1.50;;;;;;;1.46;67.39;100094.46;103616;1284;109489;-75
2022/02/02 22:58:22;;;;;;;1.70;1.70;;;;;;;1.48;67.78;100103.39;103535;1284;137229;-74
2022/02/02 23:00:50;;;;;;;1.30;1.30;;;;;;;1.52;67.53;100103.23;103563;1284;108749;-78
2022/02/02 23:03:21;;;;;;;1.30;1.30;;;;;;;1.50;67.48;100111.45;103557;1284;95296;-75
2022/02/02 23:05:59;;;;;;;1.40;1.40;;;;;;;1.49;67.54;100115.29;103438;1285;139299;-73
2022/02/02 23:08:29;;;;;;;1.50;1.50;;;;;;;1.51;68.16;100120.20;103617;1284;110861;-76
2022/02/02 23:10:58;;;;;;;1.40;1.40;;;;;;;1.55;67.91;100123.38;103480;1284;138830;-77
2022/02/02 23:13:27;;;;;;;1.40;1.40;;;;;;;1.59;67.94;100126.38;103584;1284;107924;-80
2022/02/02 23:18:30;;;;;;;1.40;1.40;;;;;;;1.64;67.78;100133.92;103562;1284;95232;-76
2022/02/02 23:21:02;;;;;;;1.40;1.40;;;;;;;1.66;67.91;100138.14;103521;1284;110193;-74
2022/02/02 23:23:33;;;;;;;1.30;1.30;;;;;;;1.73;67.89;100144.83;103518;1284;141515;-74
2022/02/02 23:26:01;;;;;;;1.30;1.30;;;;;;;1.78;67.71;100145.38;103631;1284;109503;-75
2022/02/02 23:28:34;;;;;;;1.40;1.40;;;;;;;1.77;67.90;100148.19;103532;1284;139905;-77
2022/02/02 23:31:06;;;;;;;1.30;1.30;;;;;;;1.80;67.54;100154.84;103718;1284;95305;-74